San Diego, California
Traffic Map
Current Weather Conditions
San Diego, California
Scattered Clouds
Scattered Clouds
75°
Feels Like: 75°
Wind Chill: 75° Ceiling: Unl
Heat Index: 75° Visibility: 10mi
Dew Point: 63° Wind: 8mph
Humidity: 66% Direction: 310° (NW)
Pressure: 30in Gusts: 0mph
Raw Report DataKSAN 230151Z 31007KT 10SM FEW014 SCT200 24/17 A3000 RMK AO2 SLP159 T02390172
Traffic Incident Summary
Active as of:
Severity:
Category:
InformationThere was an issue retrieving the traffic information for this location. Please try a different location or try again shortly.
Advertisements
Track Severe Weather on mobile